Time,TemperatureF,DewpointF,PressureIn,WindDirection,WindDirectionDegrees,WindSpeedMPH,WindSpeedGustMPH,Humidity,HourlyPrecipIn,Conditions,Clouds,dailyrainin,SoftwareType,DateUTC
2013-02-27 00:02:00,44.2,32.0,29.86,South,181,2.0,3.0,63,0.00,,,0.00,weatherlink.com 1.10,2013-02-27 06:02:00,
2013-02-27 00:17:00,44.9,32.0,29.87,South,181,0.0,4.0,60,0.00,,,0.00,weatherlink.com 1.10,2013-02-27 06:17:00,
2013-02-27 00:32:00,44.2,31.0,29.86,South,181,1.0,2.0,61,0.00,,,0.00,weatherlink.com 1.10,2013-02-27 06:32:00,
2013-02-27 00:47:00,43.8,32.0,29.86,South,181,3.0,4.0,64,0.00,,,0.00,weatherlink.com 1.10,2013-02-27 06:47:00,
2013-02-27 01:02:00,43.4,32.0,29.86,South,181,0.0,5.0,64,0.00,,,0.00,weatherlink.com 1.10,2013-02-27 07:02:00,
2013-02-27 01:17:00,42.3,32.0,29.86,South,181,0.0,1.0,66,0.00,,,0.00,weatherlink.com 1.10,2013-02-27 07:17:00,
2013-02-27 01:32:00,41.6,32.0,29.86,South,181,0.0,1.0,68,0.00,,,0.00,weatherlink.com 1.10,2013-02-27 07:32:00,
2013-02-27 01:47:00,41.3,32.0,29.85,South,181,0.0,2.0,70,0.00,,,0.00,weatherlink.com 1.10,2013-02-27 07:47:00,
2013-02-27 02:02:00,40.4,32.0,29.86,South,181,0.0,2.0,72,0.00,,,0.00,weatherlink.com 1.10,2013-02-27 08:02:00,
2013-02-27 02:17:00,39.8,32.0,29.86,South,181,1.0,3.0,74,0.00,,,0.00,weatherlink.com 1.10,2013-02-27 08:17:00,
2013-02-27 02:32:00,39.6,33.0,29.87,SE,145,1.0,8.0,76,0.00,,,0.00,weatherlink.com 1.10,2013-02-27 08:32:00,
2013-02-27 02:47:00,39.4,32.0,29.87,SE,145,3.0,5.0,75,0.00,,,0.00,weatherlink.com 1.10,2013-02-27 08:47:00,
2013-02-27 03:02:00,39.4,32.0,29.88,SE,145,2.0,3.0,74,0.00,,,0.00,weatherlink.com 1.10,2013-02-27 09:02:00,
2013-02-27 03:17:00,40.8,32.0,29.88,SE,145,2.0,3.0,70,0.00,,,0.00,weatherlink.com 1.10,2013-02-27 09:17:00,
2013-02-27 03:32:00,41.0,32.0,29.89,SE,145,1.0,4.0,69,0.00,,,0.00,weatherlink.com 1.10,2013-02-27 09:32:00,
2013-02-27 03:47:00,39.6,31.0,29.90,West,268,2.0,7.0,72,0.00,,,0.00,weatherlink.com 1.10,2013-02-27 09:47:00,
2013-02-27 04:02:00,38.3,31.0,29.91,West,268,2.0,4.0,74,0.00,,,0.00,weatherlink.com 1.10,2013-02-27 10:02:00,
2013-02-27 04:17:00,38.0,31.0,29.89,SSE,163,5.0,5.0,76,0.00,,,0.00,weatherlink.com 1.10,2013-02-27 10:17:00,
2013-02-27 04:33:00,36.0,30.0,29.88,SSE,151,1.0,5.0,80,0.00,,,0.00,weatherlink.com 1.10,2013-02-27 10:33:00,
2013-02-27 04:47:00,36.8,31.0,29.88,SSE,155,3.0,5.0,78,0.00,,,0.00,weatherlink.com 1.10,2013-02-27 10:47:00,
2013-02-27 05:17:00,37.1,30.0,29.90,South,170,0.0,4.0,76,0.00,,,0.00,weatherlink.com 1.10,2013-02-27 11:17:00,
2013-02-27 05:32:00,37.9,30.0,29.91,South,185,3.0,6.0,73,0.00,,,0.00,weatherlink.com 1.10,2013-02-27 11:32:00,
2013-02-27 05:47:00,39.5,29.0,29.92,West,261,2.0,6.0,67,0.00,,,0.00,weatherlink.com 1.10,2013-02-27 11:47:00,
2013-02-27 06:02:00,39.6,29.0,29.93,West,271,2.0,7.0,67,0.00,,,0.00,weatherlink.com 1.10,2013-02-27 12:02:00,
2013-02-27 06:17:00,41.7,29.0,29.94,West,276,5.0,13.0,61,0.00,,,0.00,weatherlink.com 1.10,2013-02-27 12:17:00,
2013-02-27 06:33:00,44.4,28.0,29.96,NW,309,7.0,16.0,52,0.00,,,0.00,weatherlink.com 1.10,2013-02-27 12:33:00,
2013-02-27 06:48:00,45.8,28.0,29.98,WNW,289,8.0,33.0,50,0.00,,,0.00,weatherlink.com 1.10,2013-02-27 12:48:00,
2013-02-27 07:03:00,43.8,29.0,30.02,NW,320,7.0,25.0,56,0.00,,,0.00,weatherlink.com 1.10,2013-02-27 13:03:00,
2013-02-27 07:18:00,41.5,31.0,30.03,NNW,329,8.0,27.0,66,0.00,,,0.00,weatherlink.com 1.10,2013-02-27 13:18:00,
2013-02-27 07:33:00,40.1,31.0,30.05,NNW,337,9.0,19.0,70,0.00,,,0.00,weatherlink.com 1.10,2013-02-27 13:33:00,
2013-02-27 07:48:00,40.5,32.0,30.07,WNW,288,7.0,18.0,71,0.00,,,0.00,weatherlink.com 1.10,2013-02-27 13:48:00,
2013-02-27 08:03:00,41.5,32.0,30.08,NNW,333,10.0,18.0,70,0.00,,,0.00,weatherlink.com 1.10,2013-02-27 14:03:00,
2013-02-27 08:18:00,42.8,32.0,30.10,NNW,332,7.0,14.0,67,0.00,,,0.00,weatherlink.com 1.10,2013-02-27 14:18:00,
2013-02-27 08:33:00,43.9,33.0,30.11,NNW,331,4.0,19.0,65,0.00,,,0.00,weatherlink.com 1.10,2013-02-27 14:33:00,
2013-02-27 08:48:00,45.5,33.0,30.11,NNW,330,7.0,12.0,63,0.00,,,0.00,weatherlink.com 1.10,2013-02-27 14:48:00,
2013-02-27 09:03:00,46.2,33.0,30.12,NNW,334,9.0,12.0,61,0.00,,,0.00,weatherlink.com 1.10,2013-02-27 15:03:00,
2013-02-27 09:18:00,47.9,33.0,30.13,NW,320,8.0,17.0,57,0.00,,,0.00,weatherlink.com 1.10,2013-02-27 15:18:00,
2013-02-27 09:33:00,48.9,34.0,30.15,NW,314,16.0,19.0,57,0.00,,,0.00,weatherlink.com 1.10,2013-02-27 15:33:00,
2013-02-27 09:48:00,49.5,33.0,30.15,NW,325,11.0,18.0,54,0.00,,,0.00,weatherlink.com 1.10,2013-02-27 15:48:00,
2013-02-27 10:03:00,50.9,34.0,30.15,NNW,341,12.0,18.0,52,0.00,,,0.00,weatherlink.com 1.10,2013-02-27 16:03:00,
2013-02-27 10:18:00,51.7,33.0,30.16,NNW,330,7.0,21.0,49,0.00,,,0.00,weatherlink.com 1.10,2013-02-27 16:18:00,
2013-02-27 10:33:00,52.3,33.0,30.16,North,4,11.0,21.0,49,0.00,,,0.00,weatherlink.com 1.10,2013-02-27 16:33:00,
2013-02-27 10:48:00,53.2,33.0,30.16,NW,314,8.0,22.0,47,0.00,,,0.00,weatherlink.com 1.10,2013-02-27 16:48:00,
2013-02-27 11:03:00,53.7,32.0,30.17,NNW,342,15.0,23.0,44,0.00,,,0.00,weatherlink.com 1.10,2013-02-27 17:03:00,
2013-02-27 11:18:00,54.1,31.0,30.17,North,350,6.0,21.0,41,0.00,,,0.00,weatherlink.com 1.10,2013-02-27 17:18:00,
2013-02-27 11:33:00,55.1,30.0,30.17,North,350,15.0,18.0,38,0.00,,,0.00,weatherlink.com 1.10,2013-02-27 17:33:00,
2013-02-27 11:49:00,56.5,30.0,30.17,NNE,18,6.0,19.0,36,0.00,,,0.00,weatherlink.com 1.10,2013-02-27 17:49:00,
2013-02-27 12:04:00,57.1,30.0,30.17,NNW,348,10.0,18.0,35,0.00,,,0.00,weatherlink.com 1.10,2013-02-27 18:04:00,
2013-02-27 12:19:00,57.3,27.0,30.17,WNW,301,7.0,21.0,32,0.00,,,0.00,weatherlink.com 1.10,2013-02-27 18:19:00,
2013-02-27 12:34:00,57.8,27.0,30.17,NNW,333,10.0,24.0,31,0.00,,,0.00,weatherlink.com 1.10,2013-02-27 18:34:00,
2013-02-27 12:49:00,58.7,28.0,30.16,NW,323,11.0,20.0,31,0.00,,,0.00,weatherlink.com 1.10,2013-02-27 18:49:00,
2013-02-27 13:04:00,59.3,27.0,30.16,NW,317,11.0,18.0,29,0.00,,,0.00,weatherlink.com 1.10,2013-02-27 19:04:00,
2013-02-27 13:19:00,60.3,25.0,30.15,NNW,338,8.0,19.0,26,0.00,,,0.00,weatherlink.com 1.10,2013-02-27 19:19:00,
2013-02-27 13:34:00,60.2,25.0,30.15,NNW,328,9.0,19.0,26,0.00,,,0.00,weatherlink.com 1.10,2013-02-27 19:34:00,
2013-02-27 13:49:00,60.5,24.0,30.14,WNW,298,9.0,22.0,25,0.00,,,0.00,weatherlink.com 1.10,2013-02-27 19:49:00,
2013-02-27 14:04:00,60.8,25.0,30.15,North,1,6.0,23.0,26,0.00,,,0.00,weatherlink.com 1.10,2013-02-27 20:04:00,
2013-02-27 14:19:00,60.9,27.0,30.14,NNE,23,14.0,22.0,27,0.00,,,0.00,weatherlink.com 1.10,2013-02-27 20:19:00,
2013-02-27 14:34:00,60.0,25.0,30.15,NNW,337,20.0,23.0,26,0.00,,,0.00,weatherlink.com 1.10,2013-02-27 20:34:00,
2013-02-27 14:49:00,59.9,26.0,30.15,North,11,11.0,24.0,27,0.00,,,0.00,weatherlink.com 1.10,2013-02-27 20:49:00,
2013-02-27 15:04:00,60.0,26.0,30.15,NW,320,8.0,24.0,27,0.00,,,0.00,weatherlink.com 1.10,2013-02-27 21:04:00,
2013-02-27 15:19:00,59.6,25.0,30.14,North,355,7.0,23.0,27,0.00,,,0.00,weatherlink.com 1.10,2013-02-27 21:19:00,
2013-02-27 15:34:00,59.6,27.0,30.14,North,8,9.0,21.0,29,0.00,,,0.00,weatherlink.com 1.10,2013-02-27 21:34:00,
2013-02-27 15:49:00,59.3,27.0,30.14,North,357,10.0,17.0,29,0.00,,,0.00,weatherlink.com 1.10,2013-02-27 21:49:00,
2013-02-27 16:04:00,59.1,27.0,30.15,NNW,340,5.0,18.0,29,0.00,,,0.00,weatherlink.com 1.10,2013-02-27 22:04:00,
2013-02-27 16:19:00,58.9,27.0,30.14,NW,304,7.0,14.0,30,0.00,,,0.00,weatherlink.com 1.10,2013-02-27 22:19:00,
2013-02-27 16:34:00,58.4,27.0,30.15,North,10,5.0,16.0,30,0.00,,,0.00,weatherlink.com 1.10,2013-02-27 22:34:00,
2013-02-27 16:49:00,58.2,26.0,30.15,NW,309,12.0,19.0,29,0.00,,,0.00,weatherlink.com 1.10,2013-02-27 22:49:00,
2013-02-27 17:04:00,58.1,26.0,30.15,NW,322,7.0,16.0,29,0.00,,,0.00,weatherlink.com 1.10,2013-02-27 23:04:00,
2013-02-27 17:19:00,57.6,23.0,30.15,NW,320,6.0,16.0,26,0.00,,,0.00,weatherlink.com 1.10,2013-02-27 23:19:00,
2013-02-27 17:34:00,56.4,22.0,30.15,NNW,345,6.0,17.0,26,0.00,,,0.00,weatherlink.com 1.10,2013-02-27 23:34:00,
2013-02-27 17:49:00,55.8,20.0,30.16,North,2,7.0,19.0,25,0.00,,,0.00,weatherlink.com 1.10,2013-02-27 23:49:00,
2013-02-27 18:04:00,55.1,20.0,30.16,NNW,337,7.0,14.0,25,0.00,,,0.00,weatherlink.com 1.10,2013-02-28 00:04:00,
2013-02-27 18:19:00,53.5,20.0,30.17,NNW,347,3.0,10.0,27,0.00,,,0.00,weatherlink.com 1.10,2013-02-28 00:19:00,
2013-02-27 18:34:00,52.7,20.0,30.18,North,351,4.0,9.0,28,0.00,,,0.00,weatherlink.com 1.10,2013-02-28 00:34:00,
2013-02-27 18:49:00,52.3,20.0,30.18,NNW,345,6.0,9.0,28,0.00,,,0.00,weatherlink.com 1.10,2013-02-28 00:49:00,
2013-02-27 19:04:00,51.1,20.0,30.18,NNW,345,4.0,7.0,29,0.00,,,0.00,weatherlink.com 1.10,2013-02-28 01:04:00,
2013-02-27 19:19:00,50.1,20.0,30.20,NNW,330,4.0,6.0,31,0.00,,,0.00,weatherlink.com 1.10,2013-02-28 01:19:00,
2013-02-27 19:34:00,48.9,20.0,30.20,NNW,342,3.0,7.0,32,0.00,,,0.00,weatherlink.com 1.10,2013-02-28 01:34:00,
2013-02-27 19:49:00,47.9,21.0,30.20,NNW,337,3.0,6.0,34,0.00,,,0.00,weatherlink.com 1.10,2013-02-28 01:49:00,
2013-02-27 20:04:00,47.3,21.0,30.21,NNW,336,4.0,7.0,35,0.00,,,0.00,weatherlink.com 1.10,2013-02-28 02:04:00,
2013-02-27 20:19:00,46.9,22.0,30.21,NNW,339,3.0,7.0,37,0.00,,,0.00,weatherlink.com 1.10,2013-02-28 02:19:00,
2013-02-27 20:34:00,46.4,21.0,30.22,NW,317,5.0,8.0,37,0.00,,,0.00,weatherlink.com 1.10,2013-02-28 02:34:00,
2013-02-27 20:49:00,45.4,22.0,30.22,NW,322,3.0,6.0,39,0.00,,,0.00,weatherlink.com 1.10,2013-02-28 02:49:00,
2013-02-27 21:04:00,44.3,22.0,30.22,NNW,332,2.0,7.0,41,0.00,,,0.00,weatherlink.com 1.10,2013-02-28 03:04:00,
2013-02-27 21:19:00,44.1,22.0,30.23,NNW,327,4.0,6.0,41,0.00,,,0.00,weatherlink.com 1.10,2013-02-28 03:19:00,
2013-02-27 21:34:00,43.4,22.0,30.23,NNW,327,4.0,6.0,43,0.00,,,0.00,weatherlink.com 1.10,2013-02-28 03:34:00,
2013-02-27 21:49:00,42.8,22.0,30.24,NNW,328,2.0,5.0,44,0.00,,,0.00,weatherlink.com 1.10,2013-02-28 03:49:00,
2013-02-27 22:04:00,41.9,22.0,30.24,NNW,329,1.0,6.0,45,0.00,,,0.00,weatherlink.com 1.10,2013-02-28 04:04:00,
2013-02-27 22:34:00,41.1,22.0,30.25,NNW,328,2.0,3.0,46,0.00,,,0.00,weatherlink.com 1.10,2013-02-28 04:34:00,
2013-02-27 22:49:00,40.4,21.0,30.25,NNW,328,2.0,5.0,47,0.00,,,0.00,weatherlink.com 1.10,2013-02-28 04:49:00,
2013-02-27 23:05:00,40.3,22.0,30.26,NNW,328,2.0,6.0,48,0.00,,,0.00,weatherlink.com 1.10,2013-02-28 05:05:00,
2013-02-27 23:20:00,40.0,23.0,30.25,NNW,330,1.0,6.0,51,0.00,,,0.00,weatherlink.com 1.10,2013-02-28 05:20:00,
2013-02-27 23:35:00,40.1,24.0,30.25,NNW,337,0.0,5.0,52,0.00,,,0.00,weatherlink.com 1.10,2013-02-28 05:35:00,
2013-02-27 23:50:00,39.8,24.0,30.26,NNW,332,2.0,5.0,53,0.00,,,0.00,weatherlink.com 1.10,2013-02-28 05:50:00,